Time;durP1;ratioP1;P1;durP2;ratioP2;P2;SDS_P1;SDS_P2;PMS_P1;PMS_P2;Temp;Humidity;BMP_temperature;BMP_pressure;BME280_temperature;BME280_humidity;BME280_pressure;Samples;Min_cycle;Max_cycle;Signal;HPM_P1;HPM_P2
2023/12/12 00:01:50;;;;;;;1.70;1.30;;;;;;;;;;5046493;28;20033;-78
2023/12/12 00:04:34;;;;;;;2.42;2.22;;;;;;;;;;5048293;28;20140;-80
2023/12/12 00:07:24;;;;;;;1.98;1.67;;;;;;;;;;5047631;28;20056;-78
2023/12/12 00:10:10;;;;;;;5.05;2.33;;;;;;;;;;5046143;28;20373;-78
2023/12/12 00:12:48;;;;;;;1.08;0.90;;;;;;;;;;5048153;28;20071;-79
2023/12/12 00:15:32;;;;;;;2.53;2.33;;;;;;;;;;5047385;28;20485;-80
2023/12/12 00:17:58;;;;;;;5.20;3.03;;;;;;;;;;5047830;28;20108;-79
2023/12/12 00:20:23;;;;;;;8.23;2.65;;;;;;;;;;5050539;28;20112;-79
2023/12/12 00:22:49;;;;;;;6.88;1.52;;;;;;;;;;5049430;28;20036;-79
2023/12/12 00:25:32;;;;;;;4.38;3.22;;;;;;;;;;5048678;28;20029;-80
2023/12/12 00:28:01;;;;;;;2.92;2.67;;;;;;;;;;5049770;28;20104;-79
2023/12/12 00:30:26;;;;;;;2.70;1.02;;;;;;;;;;5050268;28;20025;-78
2023/12/12 00:32:52;;;;;;;6.50;2.30;;;;;;;;;;5051576;28;20024;-80
2023/12/12 00:35:17;;;;;;;2.33;1.98;;;;;;;;;;5047385;28;20056;-80
2023/12/12 00:37:45;;;;;;;1.73;1.35;;;;;;;;;;5048715;28;20035;-80
2023/12/12 00:40:11;;;;;;;3.88;2.13;;;;;;;;;;5049866;28;20052;-80
2023/12/12 00:42:39;;;;;;;1.88;1.42;;;;;;;;;;5051221;28;20056;-79
2023/12/12 00:45:06;;;;;;;6.45;1.83;;;;;;;;;;5050809;28;20029;-78
2023/12/12 00:47:35;;;;;;;8.05;2.38;;;;;;;;;;5048274;28;20040;-79
2023/12/12 00:50:01;;;;;;;2.70;2.45;;;;;;;;;;5048574;28;20021;-78
2023/12/12 00:52:27;;;;;;;3.58;1.98;;;;;;;;;;5049730;28;20056;-78
2023/12/12 00:54:52;;;;;;;1.98;1.83;;;;;;;;;;5050445;28;20125;-77
2023/12/12 00:57:18;;;;;;;1.40;1.30;;;;;;;;;;5049844;28;20123;-78
2023/12/12 00:59:43;;;;;;;2.05;0.65;;;;;;;;;;5050951;28;20096;-78
2023/12/12 01:02:09;;;;;;;6.45;1.90;;;;;;;;;;5051194;28;20032;-80
2023/12/12 01:04:35;;;;;;;1.23;1.23;;;;;;;;;;5048151;28;20040;-78
2023/12/12 01:07:12;;;;;;;4.57;2.38;;;;;;;;;;5049303;28;20542;-79
2023/12/12 01:09:39;;;;;;;1.35;1.25;;;;;;;;;;5048066;28;20501;-78
2023/12/12 01:12:06;;;;;;;3.67;1.85;;;;;;;;;;5050576;28;20025;-79
2023/12/12 01:14:58;;;;;;;1.95;1.48;;;;;;;;;;5048771;28;20094;-80
2023/12/12 01:17:28;;;;;;;3.53;2.42;;;;;;;;;;5042115;28;20032;-80
2023/12/12 01:19:54;;;;;;;1.38;1.23;;;;;;;;;;5051443;28;20572;-80
2023/12/12 01:22:22;;;;;;;1.65;1.55;;;;;;;;;;5051794;28;20040;-80
2023/12/12 01:24:48;;;;;;;4.43;2.42;;;;;;;;;;5084152;28;20557;-79
2023/12/12 01:27:13;;;;;;;5.28;2.78;;;;;;;;;;5051736;28;20460;-77
2023/12/12 01:29:39;;;;;;;2.83;1.73;;;;;;;;;;5056949;28;20036;-79
2023/12/12 01:32:05;;;;;;;2.15;1.73;;;;;;;;;;5057775;28;20020;-79
2023/12/12 01:34:30;;;;;;;2.40;2.00;;;;;;;;;;5056946;28;20412;-78
2023/12/12 01:36:56;;;;;;;2.42;1.63;;;;;;;;;;5056738;28;20033;-79
2023/12/12 01:39:21;;;;;;;4.53;2.35;;;;;;;;;;5056076;28;20055;-79
2023/12/12 01:41:50;;;;;;;2.70;1.33;;;;;;;;;;5053148;28;20519;-79
2023/12/12 01:44:16;;;;;;;5.30;2.75;;;;;;;;;;5054310;28;20036;-78
2023/12/12 01:46:47;;;;;;;4.80;2.05;;;;;;;;;;5058004;28;20444;-80
2023/12/12 01:49:13;;;;;;;3.40;1.90;;;;;;;;;;5056210;28;20426;-80
2023/12/12 01:51:39;;;;;;;6.30;2.45;;;;;;;;;;5052060;28;20472;-78
2023/12/12 01:54:09;;;;;;;2.38;1.65;;;;;;;;;;5054685;28;20044;-79
2023/12/12 01:56:35;;;;;;;3.90;1.63;;;;;;;;;;5056754;28;20048;-77
2023/12/12 01:59:02;;;;;;;1.50;1.40;;;;;;;;;;5055577;28;20035;-78
2023/12/12 02:01:28;;;;;;;1.17;0.85;;;;;;;;;;5050656;28;20029;-79
2023/12/12 02:03:54;;;;;;;3.63;1.65;;;;;;;;;;5052979;28;20541;-79
2023/12/12 02:06:24;;;;;;;2.15;1.63;;;;;;;;;;5053681;28;20021;-80
2023/12/12 02:08:50;;;;;;;6.30;2.03;;;;;;;;;;5051359;28;20033;-80
2023/12/12 02:11:16;;;;;;;5.85;1.80;;;;;;;;;;5051559;28;20145;-79
2023/12/12 02:13:42;;;;;;;1.45;1.35;;;;;;;;;;5052850;28;20477;-81
2023/12/12 02:16:12;;;;;;;6.70;1.67;;;;;;;;;;5051112;28;20059;-78
2023/12/12 02:18:37;;;;;;;5.47;3.05;;;;;;;;;;5048601;28;20025;-79
2023/12/12 02:21:03;;;;;;;5.25;3.45;;;;;;;;;;5050384;28;20401;-80
2023/12/12 02:23:32;;;;;;;1.83;1.73;;;;;;;;;;5052073;28;20025;-80
2023/12/12 02:26:02;;;;;;;3.30;2.65;;;;;;;;;;5049927;28;20037;-80
2023/12/12 02:28:28;;;;;;;2.97;2.45;;;;;;;;;;5050983;28;20033;-78
2023/12/12 02:30:54;;;;;;;3.60;2.42;;;;;;;;;;5053854;28;21114;-78
2023/12/12 02:33:20;;;;;;;4.28;2.50;;;;;;;;;;5054544;28;20035;-78
2023/12/12 02:35:48;;;;;;;6.75;3.17;;;;;;;;;;5046590;28;20331;-79
2023/12/12 02:38:13;;;;;;;2.53;2.33;;;;;;;;;;5051031;28;20067;-79
2023/12/12 02:40:39;;;;;;;11.98;2.95;;;;;;;;;;5048318;28;20071;-79
2023/12/12 02:43:05;;;;;;;3.75;2.42;;;;;;;;;;5052741;28;20060;-80
2023/12/12 02:45:30;;;;;;;3.25;2.38;;;;;;;;;;5048938;28;20032;-79
2023/12/12 02:47:56;;;;;;;10.20;4.63;;;;;;;;;;5051313;28;20033;-78
2023/12/12 02:50:21;;;;;;;4.63;2.28;;;;;;;;;;5053468;28;20162;-78
2023/12/12 02:52:47;;;;;;;11.20;4.00;;;;;;;;;;5051450;28;20389;-78
2023/12/12 02:55:12;;;;;;;8.27;2.42;;;;;;;;;;5050221;28;20047;-79
2023/12/12 02:57:38;;;;;;;6.18;3.28;;;;;;;;;;5051380;28;20045;-79
2023/12/12 03:00:22;;;;;;;5.22;3.58;;;;;;;;;;5054532;28;20036;-79
2023/12/12 03:02:50;;;;;;;14.13;4.15;;;;;;;;;;5053509;28;20028;-78
2023/12/12 03:05:18;;;;;;;14.52;6.38;;;;;;;;;;5049501;28;20036;-80
2023/12/12 03:07:44;;;;;;;8.60;4.50;;;;;;;;;;5048383;28;20036;-78
2023/12/12 03:10:26;;;;;;;4.97;3.95;;;;;;;;;;5049950;28;20029;-80
2023/12/12 03:12:52;;;;;;;4.72;3.72;;;;;;;;;;5047260;28;20098;-80
2023/12/12 03:15:22;;;;;;;3.92;3.03;;;;;;;;;;5050383;28;20420;-79
2023/12/12 03:17:48;;;;;;;3.78;3.40;;;;;;;;;;5051371;28;20111;-80
2023/12/12 03:20:13;;;;;;;2.35;2.03;;;;;;;;;;5052822;28;20112;-79
2023/12/12 03:22:42;;;;;;;4.97;4.13;;;;;;;;;;5047119;28;20025;-79
2023/12/12 03:25:08;;;;;;;6.22;3.42;;;;;;;;;;5049699;28;20032;-78
2023/12/12 03:27:33;;;;;;;6.63;4.47;;;;;;;;;;5049033;28;20082;-80
2023/12/12 03:29:58;;;;;;;4.63;2.42;;;;;;;;;;5052136;28;20032;-78
2023/12/12 03:32:24;;;;;;;5.28;3.67;;;;;;;;;;5050312;28;20131;-79
2023/12/12 03:34:49;;;;;;;2.80;2.10;;;;;;;;;;5049280;28;20507;-78
2023/12/12 03:37:17;;;;;;;5.15;2.35;;;;;;;;;;5048903;28;20040;-78
2023/12/12 03:39:52;;;;;;;5.43;4.05;;;;;;;;;;5049289;28;20033;-79
2023/12/12 03:42:17;;;;;;;11.13;4.60;;;;;;;;;;5048407;28;20039;-78
2023/12/12 03:44:43;;;;;;;5.80;4.13;;;;;;;;;;5050451;28;20037;-80
2023/12/12 03:47:12;;;;;;;5.88;3.22;;;;;;;;;;5046822;28;20048;-79
2023/12/12 03:49:37;;;;;;;4.03;3.58;;;;;;;;;;5051966;28;20507;-79
2023/12/12 03:52:03;;;;;;;4.78;2.55;;;;;;;;;;5049519;28;20028;-79
2023/12/12 03:54:32;;;;;;;3.55;3.20;;;;;;;;;;5050971;28;20032;-80
2023/12/12 03:56:57;;;;;;;4.60;3.10;;;;;;;;;;5050964;28;20052;-77
2023/12/12 03:59:22;;;;;;;4.57;2.83;;;;;;;;;;5051235;28;20048;-78
2023/12/12 04:01:48;;;;;;;4.00;3.00;;;;;;;;;;5048312;28;20182;-80
2023/12/12 04:04:17;;;;;;;5.05;3.45;;;;;;;;;;5051339;28;20104;-82
2023/12/12 04:06:44;;;;;;;3.15;2.85;;;;;;;;;;5051211;28;20480;-81
2023/12/12 04:09:12;;;;;;;3.63;2.40;;;;;;;;;;5049015;28;20501;-79
2023/12/12 04:11:38;;;;;;;3.67;2.38;;;;;;;;;;5050711;28;20029;-79
2023/12/12 04:14:03;;;;;;;7.72;3.65;;;;;;;;;;5047217;28;20029;-79
2023/12/12 04:16:29;;;;;;;5.68;4.43;;;;;;;;;;5048612;28;20104;-78
2023/12/12 04:18:54;;;;;;;6.65;2.78;;;;;;;;;;5047490;28;20025;-80
2023/12/12 04:21:20;;;;;;;5.63;3.22;;;;;;;;;;5051985;28;20369;-79
2023/12/12 04:23:45;;;;;;;3.03;1.95;;;;;;;;;;5049146;28;20040;-81
2023/12/12 04:26:12;;;;;;;4.70;2.78;;;;;;;;;;5049967;28;20103;-81
2023/12/12 04:28:38;;;;;;;5.00;3.83;;;;;;;;;;5047989;28;20517;-80
2023/12/12 04:31:04;;;;;;;8.60;4.35;;;;;;;;;;5049191;28;20361;-80
2023/12/12 04:33:30;;;;;;;2.60;2.40;;;;;;;;;;5046607;28;20028;-80
2023/12/12 04:35:56;;;;;;;5.35;3.20;;;;;;;;;;5048771;28;20033;-78
2023/12/12 04:38:21;;;;;;;3.47;2.83;;;;;;;;;;5046995;28;20028;-78
2023/12/12 04:40:46;;;;;;;5.13;3.13;;;;;;;;;;5049454;28;20025;-79
2023/12/12 04:43:14;;;;;;;8.38;4.63;;;;;;;;;;5049307;28;20041;-79
2023/12/12 04:45:40;;;;;;;12.52;3.83;;;;;;;;;;5048497;28;20036;-81
2023/12/12 04:48:06;;;;;;;6.43;3.45;;;;;;;;;;5047556;28;20509;-78
2023/12/12 04:50:31;;;;;;;7.63;3.00;;;;;;;;;;5049141;28;20032;-81
2023/12/12 04:52:57;;;;;;;3.97;2.72;;;;;;;;;;5051726;28;20396;-80
2023/12/12 04:55:22;;;;;;;3.05;2.38;;;;;;;;;;5056097;28;20035;-80
2023/12/12 04:57:48;;;;;;;4.05;3.05;;;;;;;;;;5055998;28;20872;-79
2023/12/12 05:00:16;;;;;;;4.70;3.53;;;;;;;;;;5054414;28;20136;-79
2023/12/12 05:02:42;;;;;;;7.32;3.65;;;;;;;;;;5054570;28;20086;-80
2023/12/12 05:05:08;;;;;;;3.35;2.95;;;;;;;;;;5051986;28;20029;-79
2023/12/12 05:07:34;;;;;;;3.75;3.33;;;;;;;;;;5052471;28;20039;-79
2023/12/12 05:10:00;;;;;;;7.22;3.60;;;;;;;;;;5052834;28;20021;-79
2023/12/12 05:12:25;;;;;;;3.70;3.13;;;;;;;;;;5057779;28;20427;-79
2023/12/12 05:14:51;;;;;;;3.38;3.08;;;;;;;;;;5052759;28;20020;-79
2023/12/12 05:17:17;;;;;;;3.33;3.03;;;;;;;;;;5056468;28;20485;-80
2023/12/12 05:19:42;;;;;;;4.82;3.60;;;;;;;;;;5053883;28;20033;-78
2023/12/12 05:22:08;;;;;;;2.53;2.33;;;;;;;;;;5053087;28;20519;-76
2023/12/12 05:24:33;;;;;;;4.72;1.65;;;;;;;;;;5057988;28;20039;-78
2023/12/12 05:26:59;;;;;;;4.75;2.97;;;;;;;;;;5055460;28;20040;-76
2023/12/12 05:29:24;;;;;;;4.28;3.13;;;;;;;;;;5054471;28;20047;-79
2023/12/12 05:31:50;;;;;;;5.20;4.63;;;;;;;;;;5053668;28;20376;-77
2023/12/12 05:34:15;;;;;;;5.70;3.30;;;;;;;;;;5051646;28;20026;-79
2023/12/12 05:36:41;;;;;;;4.30;3.15;;;;;;;;;;5053588;28;20021;-79
2023/12/12 05:39:09;;;;;;;5.38;3.28;;;;;;;;;;5052391;28;20024;-82
2023/12/12 05:41:35;;;;;;;5.60;2.65;;;;;;;;;;5054933;28;20029;-78
2023/12/12 05:44:01;;;;;;;5.57;3.67;;;;;;;;;;5052867;28;20047;-79
2023/12/12 05:46:26;;;;;;;5.15;3.15;;;;;;;;;;5053066;28;20044;-79
2023/12/12 05:48:51;;;;;;;7.88;3.85;;;;;;;;;;5052096;28;20025;-79
2023/12/12 05:51:17;;;;;;;5.10;4.28;;;;;;;;;;5049700;28;20025;-78
2023/12/12 05:53:42;;;;;;;4.63;3.17;;;;;;;;;;5080394;28;20373;-78
2023/12/12 05:56:08;;;;;;;10.45;3.45;;;;;;;;;;5051005;28;20105;-78
2023/12/12 05:58:33;;;;;;;6.78;2.88;;;;;;;;;;5053976;28;20045;-78
2023/12/12 06:00:59;;;;;;;4.72;2.55;;;;;;;;;;5054237;28;20365;-79
2023/12/12 06:03:24;;;;;;;7.85;3.85;;;;;;;;;;5054337;28;20044;-78
2023/12/12 06:05:50;;;;;;;4.72;4.30;;;;;;;;;;5046431;28;20033;-78
2023/12/12 06:08:16;;;;;;;7.65;3.42;;;;;;;;;;5050769;28;20029;-78
2023/12/12 06:10:41;;;;;;;5.00;2.03;;;;;;;;;;5049594;28;20032;-78
2023/12/12 06:13:08;;;;;;;3.88;2.47;;;;;;;;;;5049242;28;20520;-78
2023/12/12 06:15:33;;;;;;;5.47;3.50;;;;;;;;;;5050282;28;20025;-78
2023/12/12 06:17:58;;;;;;;5.20;3.05;;;;;;;;;;5050678;28;20033;-78
2023/12/12 06:20:25;;;;;;;3.85;3.08;;;;;;;;;;5050738;28;20057;-78
2023/12/12 06:22:50;;;;;;;3.97;2.55;;;;;;;;;;5048437;28;20040;-80
2023/12/12 06:25:16;;;;;;;7.03;2.08;;;;;;;;;;5051296;28;20032;-79
2023/12/12 06:27:41;;;;;;;6.30;4.13;;;;;;;;;;5049832;28;20090;-77
2023/12/12 06:30:07;;;;;;;5.03;3.17;;;;;;;;;;5051539;28;20171;-79
2023/12/12 06:32:32;;;;;;;3.97;2.63;;;;;;;;;;5050249;28;20024;-80
2023/12/12 06:35:04;;;;;;;2.58;2.38;;;;;;;;;;5053296;28;20111;-79
2023/12/12 06:37:29;;;;;;;0.43;0.43;;;;;;;;;;5049885;28;20040;-79
2023/12/12 06:39:55;;;;;;;0.60;0.60;;;;;;;;;;5051146;28;20033;-82
2023/12/12 06:42:25;;;;;;;0.35;0.35;;;;;;;;;;5050082;28;20029;-80
2023/12/12 06:44:50;;;;;;;;;;;;;;;;;;5050604;28;20028;-79
2023/12/12 06:47:15;;;;;;;4.10;3.70;;;;;;;;;;5048306;28;20433;-76
2023/12/12 06:49:41;;;;;;;3.03;2.55;;;;;;;;;;5050609;28;20037;-80
2023/12/12 06:52:06;;;;;;;4.32;3.05;;;;;;;;;;5052001;28;20029;-79
2023/12/12 06:54:31;;;;;;;4.93;2.78;;;;;;;;;;5052147;28;20376;-77
2023/12/12 06:56:57;;;;;;;5.25;4.00;;;;;;;;;;5050241;28;20465;-80
2023/12/12 06:59:22;;;;;;;4.63;3.38;;;;;;;;;;5043268;28;20108;-77
2023/12/12 07:01:48;;;;;;;7.20;2.85;;;;;;;;;;5046614;28;20025;-77
2023/12/12 07:04:13;;;;;;;3.03;2.55;;;;;;;;;;5046700;28;20059;-77
2023/12/12 07:06:39;;;;;;;7.90;3.47;;;;;;;;;;5048357;28;20045;-78
2023/12/12 07:09:04;;;;;;;8.20;4.75;;;;;;;;;;5049019;28;20035;-78
2023/12/12 07:11:30;;;;;;;5.03;3.35;;;;;;;;;;5048556;28;20025;-78
2023/12/12 07:13:57;;;;;;;7.53;3.33;;;;;;;;;;5046221;28;20039;-79
2023/12/12 07:16:22;;;;;;;5.82;2.38;;;;;;;;;;5048482;28;20020;-79
2023/12/12 07:18:48;;;;;;;5.78;3.40;;;;;;;;;;5047978;28;20492;-80
2023/12/12 07:21:15;;;;;;;11.23;3.75;;;;;;;;;;5043942;28;20025;-79
2023/12/12 07:23:40;;;;;;;4.07;1.92;;;;;;;;;;5046447;28;20473;-79
2023/12/12 07:26:05;;;;;;;2.75;2.53;;;;;;;;;;5054002;28;20056;-79
2023/12/12 07:28:31;;;;;;;10.77;4.40;;;;;;;;;;5050880;28;20535;-79
2023/12/12 07:30:56;;;;;;;5.40;4.25;;;;;;;;;;5050760;28;20033;-79
2023/12/12 07:33:22;;;;;;;4.90;2.45;;;;;;;;;;5051846;28;20029;-79
2023/12/12 07:35:47;;;;;;;3.67;3.20;;;;;;;;;;5050069;28;20048;-78
2023/12/12 07:38:13;;;;;;;6.63;3.10;;;;;;;;;;5051822;28;20082;-80
2023/12/12 07:40:38;;;;;;;3.92;2.70;;;;;;;;;;5047309;28;20512;-79
2023/12/12 07:43:04;;;;;;;3.03;1.73;;;;;;;;;;5046921;28;20358;-79
2023/12/12 07:45:29;;;;;;;0.82;0.82;;;;;;;;;;5047597;28;20041;-80
2023/12/12 07:47:54;;;;;;;1.30;1.27;;;;;;;;;;5050751;28;20032;-77
2023/12/12 07:50:20;;;;;;;5.60;1.98;;;;;;;;;;5048455;28;20033;-78
2023/12/12 07:52:47;;;;;;;0.32;0.32;;;;;;;;;;5048423;28;20104;-80
2023/12/12 07:55:13;;;;;;;6.18;2.78;;;;;;;;;;5047311;28;20036;-80
2023/12/12 07:57:38;;;;;;;4.32;3.40;;;;;;;;;;5048274;28;20062;-79
2023/12/12 08:00:07;;;;;;;2.88;2.67;;;;;;;;;;5048772;28;20054;-77
2023/12/12 08:02:33;;;;;;;5.33;3.67;;;;;;;;;;5047743;28;20039;-77
2023/12/12 08:04:59;;;;;;;5.78;4.20;;;;;;;;;;5049223;28;20040;-79
2023/12/12 08:07:24;;;;;;;14.57;4.45;;;;;;;;;;5049408;28;20028;-78
2023/12/12 08:09:50;;;;;;;3.55;3.22;;;;;;;;;;5049597;28;20131;-78
2023/12/12 08:12:16;;;;;;;2.28;2.08;;;;;;;;;;5048917;28;20100;-78
2023/12/12 08:14:42;;;;;;;3.90;3.10;;;;;;;;;;5047792;28;20115;-76
2023/12/12 08:17:07;;;;;;;3.20;2.95;;;;;;;;;;5047192;28;20528;-79
2023/12/12 08:19:32;;;;;;;4.43;3.47;;;;;;;;;;5048820;28;20119;-78
2023/12/12 08:21:58;;;;;;;4.45;4.03;;;;;;;;;;5048806;28;20484;-78
2023/12/12 08:24:24;;;;;;;6.68;3.97;;;;;;;;;;5049371;28;20078;-77
2023/12/12 08:26:49;;;;;;;5.03;3.28;;;;;;;;;;5048238;28;20024;-78
2023/12/12 08:29:15;;;;;;;9.82;4.68;;;;;;;;;;5050246;28;20082;-76
2023/12/12 08:31:41;;;;;;;2.75;1.67;;;;;;;;;;5049327;28;20025;-77
2023/12/12 08:34:07;;;;;;;3.65;2.15;;;;;;;;;;5046483;28;20369;-77
2023/12/12 08:36:33;;;;;;;6.72;4.35;;;;;;;;;;5047395;28;20029;-77
2023/12/12 08:38:59;;;;;;;6.32;3.85;;;;;;;;;;5048651;28;20033;-79
2023/12/12 08:41:27;;;;;;;4.03;3.63;;;;;;;;;;5046705;28;20021;-78
2023/12/12 08:43:54;;;;;;;6.13;2.92;;;;;;;;;;5042236;28;20029;-79
2023/12/12 08:46:21;;;;;;;6.88;4.40;;;;;;;;;;5046495;28;20520;-80
2023/12/12 08:48:47;;;;;;;4.63;3.38;;;;;;;;;;5048595;28;20028;-77
2023/12/12 08:51:13;;;;;;;6.82;3.33;;;;;;;;;;5048354;28;20126;-77
2023/12/12 08:53:39;;;;;;;6.05;3.47;;;;;;;;;;5047827;28;20115;-79
2023/12/12 08:56:11;;;;;;;4.82;2.75;;;;;;;;;;5048504;28;20489;-79
2023/12/12 08:58:37;;;;;;;8.98;2.92;;;;;;;;;;5047174;28;20028;-78
2023/12/12 09:01:02;;;;;;;6.45;3.83;;;;;;;;;;5047378;28;20040;-79
2023/12/12 09:03:31;;;;;;;5.47;3.28;;;;;;;;;;5048643;28;20041;-79
2023/12/12 09:05:56;;;;;;;4.78;2.55;;;;;;;;;;5047244;28;20120;-79
2023/12/12 09:08:21;;;;;;;6.22;3.35;;;;;;;;;;5047293;28;20116;-79
2023/12/12 09:10:47;;;;;;;12.35;3.88;;;;;;;;;;5047526;28;20021;-79
2023/12/12 09:13:12;;;;;;;6.20;2.67;;;;;;;;;;5047142;28;20040;-79
2023/12/12 09:15:38;;;;;;;4.97;3.40;;;;;;;;;;5045703;28;20056;-79
2023/12/12 09:18:03;;;;;;;27.13;3.92;;;;;;;;;;5037638;28;20530;-80
2023/12/12 09:20:29;;;;;;;6.05;3.17;;;;;;;;;;5046297;28;20032;-79
2023/12/12 09:22:54;;;;;;;3.55;3.00;;;;;;;;;;5047409;28;20040;-78
2023/12/12 09:25:20;;;;;;;6.90;3.67;;;;;;;;;;5047282;28;20025;-79
2023/12/12 09:27:45;;;;;;;4.43;3.53;;;;;;;;;;5047151;28;20033;-78
2023/12/12 09:30:11;;;;;;;5.40;2.95;;;;;;;;;;5048653;28;20037;-80
2023/12/12 09:32:37;;;;;;;5.95;2.53;;;;;;;;;;5047383;28;20404;-79
2023/12/12 09:35:03;;;;;;;4.00;3.58;;;;;;;;;;5047815;28;20033;-78
2023/12/12 09:37:29;;;;;;;2.95;2.70;;;;;;;;;;5048186;28;20024;-79
2023/12/12 09:39:55;;;;;;;7.57;5.35;;;;;;;;;;5048531;28;20496;-79
2023/12/12 09:42:24;;;;;;;4.03;3.38;;;;;;;;;;5050265;28;20102;-80
2023/12/12 09:45:00;;;;;;;7.22;3.92;;;;;;;;;;5050711;28;20029;-79
2023/12/12 09:47:30;;;;;;;3.97;3.17;;;;;;;;;;5048618;28;20505;-78
2023/12/12 09:49:58;;;;;;;5.25;4.13;;;;;;;;;;5050724;28;20032;-79
2023/12/12 09:52:24;;;;;;;10.88;3.53;;;;;;;;;;5051114;28;20054;-79
2023/12/12 09:54:51;;;;;;;7.75;4.13;;;;;;;;;;5051019;28;20086;-78
2023/12/12 09:57:19;;;;;;;4.72;1.73;;;;;;;;;;5052087;28;20444;-78
2023/12/12 09:59:44;;;;;;;0.63;0.57;;;;;;;;;;5052557;28;20473;-80
2023/12/12 10:02:19;;;;;;;0.65;0.40;;;;;;;;;;5050819;28;20065;-78
2023/12/12 10:04:45;;;;;;;1.65;1.20;;;;;;;;;;5051983;28;20120;-81
2023/12/12 10:07:13;;;;;;;0.50;0.50;;;;;;;;;;5051939;28;20108;-78
2023/12/12 10:09:39;;;;;;;0.40;0.40;;;;;;;;;;5049874;28;20681;-77
2023/12/12 10:12:05;;;;;;;0.85;0.32;;;;;;;;;;5051013;28;20035;-77
2023/12/12 10:14:43;;;;;;;0.13;0.13;;;;;;;;;;5051328;28;20060;-79
2023/12/12 10:17:11;;;;;;;0.10;0.10;;;;;;;;;;5049648;28;20040;-81
2023/12/12 10:19:38;;;;;;;0.65;0.50;;;;;;;;;;5050698;28;20163;-79
2023/12/12 10:22:08;;;;;;;0.20;0.20;;;;;;;;;;5051029;28;20675;-78
2023/12/12 10:24:35;;;;;;;0.30;0.30;;;;;;;;;;5051862;28;20413;-77
2023/12/12 10:27:01;;;;;;;0.55;0.50;;;;;;;;;;5050302;28;20135;-78
2023/12/12 10:29:26;;;;;;;0.50;0.50;;;;;;;;;;5048305;28;20029;-78
2023/12/12 10:31:53;;;;;;;0.30;0.30;;;;;;;;;;5081507;28;20020;-77
2023/12/12 10:34:20;;;;;;;0.90;0.60;;;;;;;;;;5049249;28;20486;-79
2023/12/12 10:36:49;;;;;;;0.25;0.25;;;;;;;;;;5048850;28;20079;-77
2023/12/12 10:39:16;;;;;;;0.50;0.50;;;;;;;;;;5048549;28;20040;-78
2023/12/12 10:41:56;;;;;;;0.55;0.55;;;;;;;;;;5048755;28;20499;-77
2023/12/12 10:44:29;;;;;;;1.13;0.80;;;;;;;;;;5047206;28;20024;-76
2023/12/12 10:46:56;;;;;;;1.95;0.40;;;;;;;;;;5048385;28;20511;-77
2023/12/12 10:49:28;;;;;;;0.82;0.68;;;;;;;;;;5048414;28;20060;-77
2023/12/12 10:51:54;;;;;;;0.60;0.55;;;;;;;;;;5049216;28;20055;-80
2023/12/12 10:54:22;;;;;;;0.60;0.57;;;;;;;;;;5049593;28;20095;-79
2023/12/12 10:56:49;;;;;;;0.77;0.75;;;;;;;;;;5048055;28;20041;-78
2023/12/12 10:59:19;;;;;;;1.05;1.00;;;;;;;;;;5049748;28;20439;-77
2023/12/12 11:01:48;;;;;;;1.52;0.55;;;;;;;;;;5045793;28;20500;-80
2023/12/12 11:04:21;;;;;;;0.82;0.60;;;;;;;;;;5046638;28;20029;-78
2023/12/12 11:06:47;;;;;;;0.95;0.80;;;;;;;;;;5080973;28;20057;-78
2023/12/12 11:09:15;;;;;;;0.82;0.70;;;;;;;;;;5049585;28;20032;-79
2023/12/12 11:11:44;;;;;;;1.65;0.63;;;;;;;;;;5048026;28;20041;-79
2023/12/12 11:14:11;;;;;;;1.40;0.45;;;;;;;;;;5048527;28;20358;-77
2023/12/12 11:16:37;;;;;;;0.73;0.50;;;;;;;;;;5049523;28;20036;-76
2023/12/12 11:19:03;;;;;;;1.55;0.98;;;;;;;;;;5050336;28;20469;-78
2023/12/12 11:21:45;;;;;;;1.30;1.17;;;;;;;;;;5049570;28;20028;-78
2023/12/12 11:24:12;;;;;;;0.98;0.82;;;;;;;;;;5049328;28;20037;-79
2023/12/12 11:26:38;;;;;;;1.65;1.20;;;;;;;;;;5077587;28;20489;-79
2023/12/12 11:29:07;;;;;;;1.92;1.23;;;;;;;;;;5048701;28;20072;-78
2023/12/12 11:31:36;;;;;;;1.13;1.02;;;;;;;;;;5048947;28;20086;-79
2023/12/12 11:34:05;;;;;;;0.85;0.75;;;;;;;;;;5047566;28;20046;-80
2023/12/12 11:36:58;;;;;;;1.77;1.00;;;;;;;;;;5048406;28;20449;-79
2023/12/12 11:39:37;;;;;;;0.77;0.77;;;;;;;;;;5048129;28;20024;-78
2023/12/12 11:42:04;;;;;;;2.67;1.27;;;;;;;;;;5049251;28;20039;-76
2023/12/12 11:44:40;;;;;;;0.70;0.70;;;;;;;;;;5049472;28;20033;-80
2023/12/12 11:47:11;;;;;;;2.88;1.52;;;;;;;;;;5046200;28;20053;-78
2023/12/12 11:49:36;;;;;;;2.03;1.45;;;;;;;;;;5048334;28;20466;-78
2023/12/12 11:52:02;;;;;;;1.55;1.02;;;;;;;;;;5049079;28;20029;-77
2023/12/12 11:54:27;;;;;;;1.50;1.08;;;;;;;;;;5049190;28;20035;-77
2023/12/12 11:56:57;;;;;;;4.15;2.25;;;;;;;;;;5048165;28;20044;-80
2023/12/12 11:59:24;;;;;;;5.35;2.13;;;;;;;;;;5048936;28;20033;-78
2023/12/12 12:01:52;;;;;;;0.70;0.70;;;;;;;;;;5047319;28;20265;-77
2023/12/12 12:04:18;;;;;;;2.53;1.40;;;;;;;;;;5048259;28;20041;-80
2023/12/12 12:06:44;;;;;;;1.88;1.48;;;;;;;;;;5048868;28;20055;-76
2023/12/12 12:09:12;;;;;;;1.50;1.20;;;;;;;;;;5048906;28;20040;-77
2023/12/12 12:11:39;;;;;;;2.38;1.60;;;;;;;;;;5048544;28;20031;-77
2023/12/12 12:14:05;;;;;;;3.10;1.77;;;;;;;;;;5047302;28;20115;-78
2023/12/12 12:16:31;;;;;;;4.95;3.00;;;;;;;;;;5047956;28;20112;-77
2023/12/12 12:18:56;;;;;;;5.03;1.50;;;;;;;;;;5046049;28;20028;-78
2023/12/12 12:21:25;;;;;;;2.17;1.67;;;;;;;;;;5048646;28;20075;-78
2023/12/12 12:23:52;;;;;;;1.55;1.23;;;;;;;;;;5048488;28;20589;-76
2023/12/12 12:26:18;;;;;;;1.52;1.20;;;;;;;;;;5046577;28;20085;-78
2023/12/12 12:28:43;;;;;;;1.85;1.10;;;;;;;;;;5047390;28;20036;-80
2023/12/12 12:31:09;;;;;;;2.95;1.38;;;;;;;;;;5048224;28;20031;-76
2023/12/12 12:33:37;;;;;;;1.00;0.90;;;;;;;;;;5047224;28;20037;-75
2023/12/12 12:36:03;;;;;;;1.23;0.65;;;;;;;;;;5048411;28;21780;-78
2023/12/12 12:38:31;;;;;;;1.45;1.17;;;;;;;;;;5047270;28;20032;-79
2023/12/12 12:40:56;;;;;;;1.02;0.70;;;;;;;;;;5046705;28;20074;-76
2023/12/12 12:43:22;;;;;;;0.75;0.70;;;;;;;;;;5046648;28;20420;-76
2023/12/12 12:45:49;;;;;;;4.28;1.98;;;;;;;;;;5044937;28;20044;-76
2023/12/12 12:48:15;;;;;;;0.50;0.50;;;;;;;;;;5047157;28;20081;-80
2023/12/12 12:50:42;;;;;;;1.23;0.85;;;;;;;;;;5046281;28;20129;-77
2023/12/12 12:53:08;;;;;;;0.40;0.40;;;;;;;;;;5048250;28;20723;-78
2023/12/12 12:55:33;;;;;;;1.27;1.02;;;;;;;;;;5047258;28;20100;-78
2023/12/12 12:57:59;;;;;;;1.02;0.90;;;;;;;;;;5048154;28;20158;-77
2023/12/12 13:00:26;;;;;;;0.98;0.73;;;;;;;;;;5080302;28;20036;-80
2023/12/12 13:02:51;;;;;;;1.13;0.90;;;;;;;;;;5048085;28;20054;-80
2023/12/12 13:05:17;;;;;;;0.73;0.55;;;;;;;;;;5048395;28;20029;-79
2023/12/12 13:07:43;;;;;;;0.57;0.40;;;;;;;;;;5045790;28;20037;-78
2023/12/12 13:10:15;;;;;;;1.23;0.85;;;;;;;;;;5048157;28;20036;-77
2023/12/12 13:12:41;;;;;;;0.88;0.77;;;;;;;;;;5047888;28;20036;-78
2023/12/12 13:15:07;;;;;;;1.00;0.63;;;;;;;;;;5051225;28;20082;-80
2023/12/12 13:17:33;;;;;;;1.60;1.05;;;;;;;;;;5050776;28;20059;-76
2023/12/12 13:20:00;;;;;;;0.47;0.30;;;;;;;;;;5052404;28;20037;-79
2023/12/12 13:22:26;;;;;;;1.90;0.95;;;;;;;;;;5047680;28;20036;-80
2023/12/12 13:24:53;;;;;;;0.65;0.35;;;;;;;;;;5052059;28;20525;-77
2023/12/12 13:27:19;;;;;;;1.13;0.93;;;;;;;;;;5051820;28;20043;-79
2023/12/12 13:29:45;;;;;;;0.85;0.60;;;;;;;;;;5051005;28;20473;-77
2023/12/12 13:32:11;;;;;;;0.25;0.25;;;;;;;;;;5051793;28;20040;-76
2023/12/12 13:34:37;;;;;;;0.50;0.50;;;;;;;;;;5051924;28;20099;-80
2023/12/12 13:37:03;;;;;;;0.35;0.30;;;;;;;;;;5050731;28;20171;-77
2023/12/12 13:39:29;;;;;;;0.70;0.40;;;;;;;;;;5046663;28;20858;-81
2023/12/12 13:41:54;;;;;;;0.45;0.45;;;;;;;;;;5044479;28;20021;-80
2023/12/12 13:44:20;;;;;;;0.50;0.50;;;;;;;;;;5050713;28;20038;-79
2023/12/12 13:46:46;;;;;;;0.30;0.30;;;;;;;;;;5049507;28;20027;-80
2023/12/12 13:49:12;;;;;;;0.63;0.45;;;;;;;;;;5051010;28;20111;-78
2023/12/12 13:51:37;;;;;;;0.20;0.20;;;;;;;;;;5050011;28;20029;-77
2023/12/12 13:54:03;;;;;;;0.40;0.40;;;;;;;;;;5044956;28;20039;-78
2023/12/12 13:56:28;;;;;;;0.60;0.60;;;;;;;;;;5048759;28;20053;-78
2023/12/12 13:58:54;;;;;;;1.15;1.05;;;;;;;;;;5046420;28;20029;-76
2023/12/12 14:01:19;;;;;;;0.55;0.40;;;;;;;;;;5046889;28;20107;-74
2023/12/12 14:03:44;;;;;;;0.20;0.20;;;;;;;;;;5082210;28;20025;-78
2023/12/12 14:06:10;;;;;;;0.50;0.43;;;;;;;;;;5049934;28;20033;-78
2023/12/12 14:08:35;;;;;;;2.97;1.02;;;;;;;;;;5053375;28;20037;-76
2023/12/12 14:11:01;;;;;;;0.45;0.45;;;;;;;;;;5054891;28;20043;-80
2023/12/12 14:13:26;;;;;;;0.20;0.20;;;;;;;;;;5053439;28;21296;-78
2023/12/12 14:15:53;;;;;;;0.68;0.52;;;;;;;;;;5051716;28;20056;-77
2023/12/12 14:18:18;;;;;;;0.95;0.52;;;;;;;;;;5052224;28;20064;-76
2023/12/12 14:20:44;;;;;;;0.60;0.60;;;;;;;;;;5052099;28;20438;-77
2023/12/12 14:23:09;;;;;;;0.75;0.75;;;;;;;;;;5055816;28;20024;-77
2023/12/12 14:25:36;;;;;;;0.40;0.40;;;;;;;;;;5053170;28;20886;-77
2023/12/12 14:28:02;;;;;;;0.85;0.85;;;;;;;;;;5054078;28;20109;-77
2023/12/12 14:30:27;;;;;;;1.05;0.68;;;;;;;;;;5050463;28;20932;-76
2023/12/12 14:32:56;;;;;;;1.40;0.98;;;;;;;;;;5048162;28;20025;-78
2023/12/12 14:35:22;;;;;;;0.77;0.60;;;;;;;;;;5050064;28;20095;-77
2023/12/12 14:37:47;;;;;;;2.38;1.35;;;;;;;;;;5048594;28;20056;-77
2023/12/12 14:40:12;;;;;;;2.70;1.50;;;;;;;;;;5048083;28;20033;-76
2023/12/12 14:42:38;;;;;;;1.38;1.10;;;;;;;;;;5047589;28;20044;-77